AirNav   Pilot Hours Calculator
 
 1526 users online  

0R1 Atmore Municipal Airport
Atmore, Alabama, USA

GOING TO ATMORE?


FAA INFORMATION EFFECTIVE 07 OCTOBER 2021

Location

FAA Identifier: 0R1
Lat/Long: 31-00-58.1000N 087-26-48.3000W
31-00.968333N 087-26.805000W
31.0161389,-87.4467500
(estimated)
Elevation: 286 ft. / 87.2 m (surveyed)
Variation: 03W (2020)
From city: 3 miles E of ATMORE, AL
Time zone: UTC -5 (UTC -6 during Standard Time)
Zip code: 36502

Airport Operations

Airport use: Open to the public
Activation date: 10/1961
Control tower: no
ARTCC: JACKSONVILLE CENTER
FSS: ANNISTON FLIGHT SERVICE STATION
NOTAMs facility: ANB (NOTAM-D service available)
Attendance: MON-FRI 0700-1700
WKENDS ON CALL.
Wind indicator: lighted
Segmented circle: yes
Lights: ACTVT PAPI RWYS 18 & 36; MIRL RWY 18/36 - CTAF.
Beacon: white-green (lighted land airport)
Operates sunset to sunrise.

Airport Communications

CTAF/UNICOM: 122.8
PENSACOLA APPROACH: 127.35
PENSACOLA DEPARTURE: 127.35
WX AWOS-3PT at 12J (20 nm E): 119.325 (251-809-2987)

Nearby radio navigation aids

VOR radial/distance  VOR name  Freq  Var
MVCr186/27.0MONROEVILLE VORTAC116.8004E
NUNr349/(33.1)SAUFLEY VOR108.8001E
BFMr048/39.6BROOKLEY VORTAC112.8004E

 
NDB name  Hdg/Dist  Freq  Var  ID
PICKENS340/37.432602WPKZ .--. -.- --..

Airport Services

Fuel available: 100LL
Parking: tiedowns
Airframe service: MAJOR
Powerplant service: MAJOR
Bottled oxygen: NONE
Bulk oxygen: NONE

Runway Information

Runway 18/36

Dimensions: 5001 x 80 ft. / 1524 x 24 m
Surface: asphalt, in good condition
Weight bearing capacity: 
Single wheel: 16.0
Runway edge lights: medium intensity
RUNWAY 18  RUNWAY 36
Latitude: 31-01.381432N31-00.556477N
Longitude: 087-26.806668W087-26.803960W
Elevation: 283.2 ft.279.9 ft.
Traffic pattern: leftleft
Runway heading: 183 magnetic, 180 true003 magnetic, 360 true
Markings: nonprecision, in fair conditionnonprecision, in fair condition
Visual slope indicator: 2-light PAPI on left (3.00 degrees glide path)2-light PAPI on left (3.00 degrees glide path)
Touchdown point: yes, no lightsyes, no lights
Obstructions: 35 ft. rr, 906 ft. from runway, 20:1 slope to clear
APCH RATIO 33:1 TO DSPLCD THR.
50 ft. pline, 1424 ft. from runway, 24:1 slope to clear
APCH RATIO 32:1 TO DSPLCD THR.

Airport Ownership and Management from official FAA records

Ownership: Publicly-owned
Owner: TOWN OF ATMORE
PO DRAWER 1297
ATMORE, AL 36504
Phone 251-368-2253
Manager: FREDDIE MCCALL
15 BEACON LN
ATMORE, AL 36502
Phone 251-368-2004
ALSO 251-655-0971

Airport Operational Statistics

Aircraft based on the field: 15
Single engine airplanes: 13
Helicopters: 1
Gliders airplanes: 1
    
Aircraft operations: avg 74/week *
78% transient general aviation
22% local general aviation
* for 12-month period ending 31 July 2020

Additional Remarks

FOR CD CTC PENSACOLA APCH AT 850-266-6884 OR 850-266-6885.

Instrument Procedures

NOTE: All procedures below are presented as PDF files. If you need a reader for these files, you should download the free Adobe Reader.

NOT FOR NAVIGATION. Please procure official charts for flight.
FAA instrument procedures published for use from 07 October 2021 at 0901Z to 04 November 2021 at 0900z.

 
IAPs - Instrument Approach Procedures
RNAV (GPS) RWY 18   download (197KB)
RNAV (GPS) RWY 36   download (203KB)
NOTE: Special Take-Off Minimums/Departure Procedures apply   download (317KB)

Other nearby airports with instrument procedures:

12J - Brewton Municipal Airport (20 nm E)
1R8 - Bay Minette Municipal Airport (21 nm SW)
KMVC - Monroe County Aeroplex Airport (27 nm N)
KNSE - Whiting Field Naval Air Station North (28 nm SE)
KNDZ - Whiting Field Naval Air Station South (29 nm SE)
 
Loc | Ops | Rwys | IFR | FBO | Links
Com | Nav | Svcs | Stats | Notes
Area around 0R1 (Atmore Municipal Airport)
 
Road maps at: MapQuest Bing Google
 
Aerial photo
No photo
 
Sectional chart

 
Airport distance calculator
Flying to Atmore Municipal Airport? Find the distance to fly.

From to 0R1

Sunrise and sunset
Times for 18-Oct-2021
 Local
(UTC-5)
 Zulu
(UTC)
Morning civil twilight06:3111:31
Sunrise06:5611:56
Sunset18:1423:14
Evening civil twilight18:3923:39

Current date and time
Zulu (UTC)  18-Oct-2021 15:16:25
Local (UTC-5)  18-Oct-2021 10:16:25
 
METAR
KNSE 
29nm SE 
181456Z 07005KT 10SM FEW150 BKN250 17/08 A3021 RMK AO2 SLP216 T01670078 51022 $
KNDZ 
29nm SE 
181456Z VRB06KT 10SM BKN250 17/08 A3021 RMK AO2 SLP217 T01670078 51023 $
KGZH 
31nm NE 
181453Z AUTO 08006KT 10SM CLR 16/07 A3023 RMK AO2 SLP235 T01610072 53016
KPNS 
35nm SE 
181453Z 05006KT 10SM CLR 17/09 A3020 RMK AO2 SLP227 T01720089 51019
KBFM 
40nm SW 
181453Z 03007KT 10SM CLR 17/07 A3023 RMK AO2 SLP235 T01720072 51018
KCQF 
40nm SW 
181455Z AUTO 36007KT 10SM CLR 16/07 A3020 RMK AO2
KNPA 
41nm S 
181456Z 02007KT 10SM BKN250 18/08 A3019 RMK AO2 SLP226 T01780083 51020 $
KJKA 
45nm S 
181455Z AUTO 03005KT 10SM CLR 16/09 A3020 RMK AO2 T01550087
KMOB 
46nm SW 
181456Z 06007KT 10SM FEW050 BKN230 17/07 A3021 RMK AO2 SLP230 T01670072 51015
TAF
KNSE 
29nm SE 
1807/1907 VRB06KT 9999 FEW250 QNH3009INS FM181800 VRB06KT 9999 SCT210 QNH3005INS AUTOMATED SENSOR METWATCH 1807 TIL 1812 T21/1720Z T11/1812Z FN00231
KPNS 
35nm SE 
181123Z 1812/1912 02007KT P6SM BKN250 FM181500 06008KT P6SM BKN250 FM181900 09006KT P6SM BKN250 FM182300 06005KT P6SM SCT250
NOTAMs
Click for the latest NOTAMs
NOTAMs are issued by the DoD/FAA and will open in a separate window not controlled by AirNav.

 

 
 

FBO, Fuel Providers, and Aircraft Ground Support

  
 Business Name 
 
 Contact 
 
 Services / Description 
 
Fuel Prices
 
Comments
  
Aviation Specialists LLC 251-368-2004
no information available

If you are affiliated with Aviation Specialists LLC and would like to show here your services, contact info, web link, logo, and more, click here
100LL
SS $4.25 
 Updated 06-Oct-2021
 
   2 read write
SS=Self service
Update Fuel Prices
 

Would you like to see your business listed on this page?

 If your business provides an interesting product or service to pilots, flight crews, aircraft, or users of the Atmore Municipal Airport, you should consider listing it here.  To start the listing process, click on the button below
 
Add a business
 

Other Pages about Atmore Municipal Airport

Update a link
 
Copyright © AirNav, LLC. All rights reserved. Privacy Policy  Contact